Weather at Chicago O'Hare International Airport

Public forecast

Using degrees Fahrenheit for public forecast. Weather courtesy of forecast.io.

Current aviation weather report (METAR) for Chicago O'Hare International Airport

Retrieved 2020/10/26 23:51 UTC (26 minutes ago):

KORD 262351Z 34005KT 10SM FEW023 FEW060 OVC090 03/M02 A3030 RMK AO2 SLP268 T00281022 10039 20028 51010

Aviation forecast (TAF) for Chicago O'Hare International Airport

Retrieved 2020-10-27 00:24 UTC (0 seconds ago):

TAF KORD 262321Z 2700/2806 34007KT P6SM FEW025 BKN050 FM270900 32005KT P6SM SCT025 BKN040 PROB30 2711/2713 4SM -RASN OVC025 FM271500 27009KT P6SM SCT070 FM280000 24006KT P6SM FEW250